Ms Folla 2 — LLPD — position and weather

sailwx.info

Track history (hours):
 
Tides and Currents Weather Stations Pressure Air Temp Water Temp Dewpoint Dewpoint Depression Visibility Wind Speed Wind Dir Waves Ship Positions

Ms Folla 2

Last reported at 2016-Jul-24 20:33 UTC. Time now 2016-Jul-25 11:54 UTC.
Position N 68°44' E 016°45'.

Length 52 m; draft 5.5 m.

Type: Ship. MMSI: 258253000.

Date/timePositionNaut miles runAvg speedWind from/ knotsBaromVisibWave heightAir tempDewpointWater temp
2016-Jul-24 20:33N 68°44' E 016°45'2411.3
2016-Jul-24 18:25N 69°04' E 017°23'1011.1
2016-Jul-24 17:34N 69°09' E 017°47'9 9.0
2016-Jul-24 16:33N 69°17' E 017°58'3 0.1
2016-Jul-23 12:12N 69°20' E 018°01'5 8.5
2016-Jul-23 11:33N 69°14' E 017°58'1 1.0
2016-Jul-23 10:33N 69°13' E 017°59'10 9.9
2016-Jul-23 09:33N 69°07' E 017°38'1111.2
2016-Jul-23 08:33N 68°60' E 017°14'92 6.1
2016-Jul-22 17:28N 68°05' E 013°50'16 3.9
2016-Jul-22 13:28N 67°50' E 013°49'1011.1
2016-Jul-22 12:33N 67°40' E 013°58'1111.1
2016-Jul-22 11:33N 67°30' E 014°07'1111.0
2016-Jul-22 10:34N 67°19' E 014°15'4 3.6
2016-Jul-22 09:34N 67°16' E 014°21'2 1.6
2016-Jul-22 08:33N 67°17' E 014°24'9 9.3
2016-Jul-22 07:33N 67°11' E 014°06'4210.5
2016-Jul-22 03:31N 66°36' E 013°04'8 8.0
2016-Jul-22 02:33N 66°29' E 012°58'6 6.2
2016-Jul-22 01:32N 66°24' E 012°50'9 8.7
2016-Jul-22 00:32N 66°16' E 012°40'59 9.8
2016-Jul-21 18:32N 65°19' E 012°01'1111.1
2016-Jul-21 17:34N 65°10' E 011°51'1110.8
2016-Jul-21 16:34N 65°00' E 011°38'1110.7
2016-Jul-21 15:33N 64°53' E 011°19'9 8.9
2016-Jul-21 14:33N 64°47' E 011°05'13 0.6
2016-Jul-20 17:33N 64°35' E 011°20'8 8.4
2016-Jul-20 16:34N 64°43' E 011°28'0 0.0
2016-Jul-20 15:34N 64°43' E 011°28'0 0.0
2016-Jul-20 14:33N 64°43' E 011°28'0 0.0
2016-Jul-20 13:34N 64°43' E 011°28'7 7.5
2016-Jul-20 12:34N 64°43' E 011°10'6 6.1
2016-Jul-20 11:33N 64°48' E 011°02'0 0.0
2016-Jul-20 10:34N 64°48' E 011°02'0 0.0
2016-Jul-20 09:34N 64°48' E 011°02'0 0.0
2016-Jul-20 08:34N 64°48' E 011°02'6 5.5
2016-Jul-20 07:33N 64°51' E 011°13'2 1.9
2016-Jul-20 06:34N 64°52' E 011°17'0 0.0
2016-Jul-20 05:34N 64°52' E 011°17'0 0.0
2016-Jul-20 04:34N 64°52' E 011°17'0 0.0
2016-Jul-20 03:34N 64°52' E 011°17'0 0.0
2016-Jul-20 02:34N 64°52' E 011°17'0 0.0
2016-Jul-20 01:34N 64°52' E 011°17'0 0.0
2016-Jul-20 00:34N 64°52' E 011°17'0 0.0
2016-Jul-19 23:34N 64°52' E 011°17'0 0.0
2016-Jul-19 22:33N 64°52' E 011°17'0 0.0
2016-Jul-19 21:33N 64°52' E 011°17'0 0.0
2016-Jul-19 20:34N 64°52' E 011°17'0 0.0
2016-Jul-19 19:33N 64°52' E 011°17'2 2.1
2016-Jul-19 18:34N 64°53' E 011°19'1211.5
2016-Jul-19 17:33N 65°02' E 011°38'1211.2
2016-Jul-19 16:28N 65°12' E 011°53'7111.0
2016-Jul-19 10:04N 66°18' E 012°56'611.1
2016-Jul-19 09:33N 66°24' E 012°58'2110.6
2016-Jul-19 07:33N 66°44' E 013°11'3210.6
2016-Jul-19 04:34N 67°14' E 013°39'1111.1
2016-Jul-19 03:32N 67°24' E 013°53'7 6.8
2016-Jul-19 02:31N 67°31' E 013°58'2711.4
2016-Jul-19 00:09N 67°57' E 013°41'811.1
2016-Jul-18 23:28N 68°04' E 013°36'82 7.5
2016-Jul-18 12:32N 68°46' E 016°48'1110.8
2016-Jul-18 11:30N 68°55' E 017°04'1110.6
2016-Jul-18 10:27N 69°04' E 017°23'910.1
2016-Jul-18 09:33N 69°08' E 017°45'8 8.1
2016-Jul-18 08:33N 69°15' E 017°58'1 0.0
2016-Jul-17 04:34N 69°16' E 017°58'2 2.1
2016-Jul-17 03:33N 69°14' E 017°58'2 1.5
2016-Jul-17 02:33N 69°12' E 018°00'1010.5
2016-Jul-17 01:34N 69°06' E 017°37'29 6.8
2016-Jul-16 21:19N 68°44' E 016°46'75 4.4
2016-Jul-16 04:20N 68°05' E 013°50'17 2.8
2016-Jul-15 22:20N 68°12' E 014°31'30 7.9
2016-Jul-15 18:34N 67°42' E 014°31'1111.2
2016-Jul-15 17:34N 67°31' E 014°31'1111.3
2016-Jul-15 16:33N 67°20' E 014°23'4 3.8
2016-Jul-15 15:33N 67°16' E 014°21'0 0.0
2016-Jul-15 14:34N 67°16' E 014°21'0 0.4
2016-Jul-15 13:33N 67°17' E 014°21'3 2.8
2016-Jul-15 12:34N 67°15' E 014°15'2211.0
2016-Jul-15 10:33N 66°59' E 013°36'32 7.9
2016-Jul-15 06:32N 66°31' E 013°00'9 8.8
2016-Jul-15 05:33N 66°24' E 012°46'5 5.0
2016-Jul-15 04:33N 66°20' E 012°40'1211.0
2016-Jul-15 03:29N 66°08' E 012°40'53 8.8
2016-Jul-14 21:28N 65°18' E 011°59'  
Track history (hours):
 
Tides and Currents Weather Stations Pressure Air Temp Water Temp Dewpoint Dewpoint Depression Visibility Wind Speed Wind Dir Waves Ship Positions

Ms Folla 2

Last reported at 2016-Jul-24 20:33 UTC. Time now 2016-Jul-25 11:54 UTC.
Position N 68°44' E 016°45'.

Length 52 m; draft 5.5 m.

Type: Ship. MMSI: 258253000.

Date/timePositionNaut miles runAvg speedWind from/ knotsBaromVisibWave heightAir tempDewpointWater temp
2016-Jul-24 20:33N 68°44' E 016°45'2411.3
2016-Jul-24 18:25N 69°04' E 017°23'1011.1
2016-Jul-24 17:34N 69°09' E 017°47'9 9.0
2016-Jul-24 16:33N 69°17' E 017°58'3 0.1
2016-Jul-23 12:12N 69°20' E 018°01'5 8.5
2016-Jul-23 11:33N 69°14' E 017°58'1 1.0
2016-Jul-23 10:33N 69°13' E 017°59'10 9.9
2016-Jul-23 09:33N 69°07' E 017°38'1111.2
2016-Jul-23 08:33N 68°60' E 017°14'92 6.1
2016-Jul-22 17:28N 68°05' E 013°50'16 3.9
2016-Jul-22 13:28N 67°50' E 013°49'1011.1
2016-Jul-22 12:33N 67°40' E 013°58'1111.1
2016-Jul-22 11:33N 67°30' E 014°07'1111.0
2016-Jul-22 10:34N 67°19' E 014°15'4 3.6
2016-Jul-22 09:34N 67°16' E 014°21'2 1.6
2016-Jul-22 08:33N 67°17' E 014°24'9 9.3
2016-Jul-22 07:33N 67°11' E 014°06'4210.5
2016-Jul-22 03:31N 66°36' E 013°04'8 8.0
2016-Jul-22 02:33N 66°29' E 012°58'6 6.2
2016-Jul-22 01:32N 66°24' E 012°50'9 8.7
2016-Jul-22 00:32N 66°16' E 012°40'59 9.8
2016-Jul-21 18:32N 65°19' E 012°01'1111.1
2016-Jul-21 17:34N 65°10' E 011°51'1110.8
2016-Jul-21 16:34N 65°00' E 011°38'1110.7
2016-Jul-21 15:33N 64°53' E 011°19'9 8.9
2016-Jul-21 14:33N 64°47' E 011°05'13 0.6
2016-Jul-20 17:33N 64°35' E 011°20'8 8.4
2016-Jul-20 16:34N 64°43' E 011°28'0 0.0
2016-Jul-20 15:34N 64°43' E 011°28'0 0.0
2016-Jul-20 14:33N 64°43' E 011°28'0 0.0
2016-Jul-20 13:34N 64°43' E 011°28'7 7.5
2016-Jul-20 12:34N 64°43' E 011°10'6 6.1
2016-Jul-20 11:33N 64°48' E 011°02'0 0.0
2016-Jul-20 10:34N 64°48' E 011°02'0 0.0
2016-Jul-20 09:34N 64°48' E 011°02'0 0.0
2016-Jul-20 08:34N 64°48' E 011°02'6 5.5
2016-Jul-20 07:33N 64°51' E 011°13'2 1.9
2016-Jul-20 06:34N 64°52' E 011°17'0 0.0
2016-Jul-20 05:34N 64°52' E 011°17'0 0.0
2016-Jul-20 04:34N 64°52' E 011°17'0 0.0
2016-Jul-20 03:34N 64°52' E 011°17'0 0.0
2016-Jul-20 02:34N 64°52' E 011°17'0 0.0
2016-Jul-20 01:34N 64°52' E 011°17'0 0.0
2016-Jul-20 00:34N 64°52' E 011°17'0 0.0
2016-Jul-19 23:34N 64°52' E 011°17'0 0.0
2016-Jul-19 22:33N 64°52' E 011°17'0 0.0
2016-Jul-19 21:33N 64°52' E 011°17'0 0.0
2016-Jul-19 20:34N 64°52' E 011°17'0 0.0
2016-Jul-19 19:33N 64°52' E 011°17'2 2.1
2016-Jul-19 18:34N 64°53' E 011°19'1211.5
2016-Jul-19 17:33N 65°02' E 011°38'1211.2
2016-Jul-19 16:28N 65°12' E 011°53'7111.0
2016-Jul-19 10:04N 66°18' E 012°56'611.1
2016-Jul-19 09:33N 66°24' E 012°58'2110.6
2016-Jul-19 07:33N 66°44' E 013°11'3210.6
2016-Jul-19 04:34N 67°14' E 013°39'1111.1
2016-Jul-19 03:32N 67°24' E 013°53'7 6.8
2016-Jul-19 02:31N 67°31' E 013°58'2711.4
2016-Jul-19 00:09N 67°57' E 013°41'811.1
2016-Jul-18 23:28N 68°04' E 013°36'82 7.5
2016-Jul-18 12:32N 68°46' E 016°48'1110.8
2016-Jul-18 11:30N 68°55' E 017°04'1110.6
2016-Jul-18 10:27N 69°04' E 017°23'910.1
2016-Jul-18 09:33N 69°08' E 017°45'8 8.1
2016-Jul-18 08:33N 69°15' E 017°58'1 0.0
2016-Jul-17 04:34N 69°16' E 017°58'2 2.1
2016-Jul-17 03:33N 69°14' E 017°58'2 1.5
2016-Jul-17 02:33N 69°12' E 018°00'1010.5
2016-Jul-17 01:34N 69°06' E 017°37'29 6.8
2016-Jul-16 21:19N 68°44' E 016°46'75 4.4
2016-Jul-16 04:20N 68°05' E 013°50'17 2.8
2016-Jul-15 22:20N 68°12' E 014°31'30 7.9
2016-Jul-15 18:34N 67°42' E 014°31'1111.2
2016-Jul-15 17:34N 67°31' E 014°31'1111.3
2016-Jul-15 16:33N 67°20' E 014°23'4 3.8
2016-Jul-15 15:33N 67°16' E 014°21'0 0.0
2016-Jul-15 14:34N 67°16' E 014°21'0 0.4
2016-Jul-15 13:33N 67°17' E 014°21'3 2.8
2016-Jul-15 12:34N 67°15' E 014°15'2211.0
2016-Jul-15 10:33N 66°59' E 013°36'32 7.9
2016-Jul-15 06:32N 66°31' E 013°00'9 8.8
2016-Jul-15 05:33N 66°24' E 012°46'5 5.0
2016-Jul-15 04:33N 66°20' E 012°40'1211.0
2016-Jul-15 03:29N 66°08' E 012°40'53 8.8
2016-Jul-14 21:28N 65°18' E 011°59'  

Dump ship's entire track history